• Join FlightAware (Why Join?)
  • Login
  • US Flag 
03:08AM EDT


 

Airport Tracker/Info


-or-


 

Live Flight TrackerFlight Track Log ✈ SWA1969 ✈ 13-May-2013 ✈ KDAL - KMCI

Flight Track Log - Related Links

Times and Time Zones

All times are in EDT time to prevent confusion due to time zone crossing. See the SWA1969 flight status page for this flight to view local times or setup timezone preferences in your user account.

Time Position Orientation Groundspeed Altitude Reporting Facility
EDT Latitude Longitude Course Direction KTS MPH feet Rate Location/Type
09:04AM 32.8333 -96.8333 125° Southeast 160 184 1,600  Level Dallas / Fort Worth TRACON
09:06AM 32.7833 -96.7500 125° Southeast 236 272 5,400 2,160 Climbing Dallas / Fort Worth TRACON
09:06AM 32.7333 -96.7000 140° Southeast 240 276 6,900 1,440 Climbing Dallas / Fort Worth TRACON
09:08AM 32.7389 -96.6033 86° East 222 255 9,200 1,260 Climbing Fort Worth Center
09:09AM 32.8100 -96.6075 357° North 177 204 10,300 600 Climbing Fort Worth Center
09:10AM 32.8683 -96.6119 356° North 221 254 10,400 -780 Climbing Fort Worth Center
09:11AM 32.9333 -96.6461 336° Northwest 234 269 8,800 -1,740 Descending Fort Worth Center
09:12AM 32.9817 -96.7003 317° Northwest 254 292 7,000 -1,740 Descending Fort Worth Center
09:13AM 33.0300 -96.7767 307° West 270 311 5,400 -1,140 Descending Fort Worth Center
09:14AM 33.0033 -96.8436 245° Southwest 227 261 4,800 -720 Descending Fort Worth Center
09:15AM 32.9722 -96.8908 232° Southwest 216 249 4,000 -720 Descending Fort Worth Center
09:15AM 32.9667 -96.9000 234° Southwest 165 190 3,900 -1,320 Descending Dallas / Fort Worth TRACON
09:16AM 32.9167 -96.9167 196° South 162 186 2,400 -1,200 Descending Dallas / Fort Worth TRACON
09:17AM 32.8833 -96.9000 157° South 145 167 1,700 -900 Descending Dallas / Fort Worth TRACON
09:18AM 32.8667 -96.8667 121° Southeast 146 168 800 1,140 Descending Dallas / Fort Worth TRACON
09:20AM 32.8028 -96.8400 161° South 145 167 5,000 1,440 Climbing Fort Worth Center
09:21AM 32.7714 -96.8156 147° Southeast 145 167 5,000  Level Fort Worth Center
09:22AM 32.7400 -96.7911 147° Southeast 145 167 5,000  Level Fort Worth Center
09:23AM 32.7336 -96.7861 147° Southeast 145 167 5,000  Level Fort Worth Center
09:25AM 32.7336 -96.7861 320° Northwest 145 167 5,000  Level Fort Worth Center
09:27AM 32.7336 -96.7861 320° Northwest 145 167 5,000  Level Fort Worth Center